createdAt,value
2023-12-03T00:01:58.063Z,100063.88
2023-12-03T00:04:26.217Z,100063.94
2023-12-03T00:06:55.635Z,100068.19
2023-12-03T00:09:23.398Z,100037.50
2023-12-03T00:11:51.484Z,100066.31
2023-12-03T00:14:19.135Z,100052.19
2023-12-03T00:16:47.064Z,100061.84
2023-12-03T00:19:14.892Z,100053.94
2023-12-03T00:21:43.007Z,100020.38
2023-12-03T00:24:12.131Z,100064.28
2023-12-03T00:26:40.184Z,100024.03
2023-12-03T00:29:07.872Z,100053.75
2023-12-03T00:31:36.847Z,100057.19
2023-12-03T00:34:04.604Z,100064.91
2023-12-03T00:36:34.239Z,100049.06
2023-12-03T00:39:02.883Z,100058.69
2023-12-03T00:41:35.209Z,100062.78
2023-12-03T00:44:03.432Z,100059.34
2023-12-03T00:46:31.061Z,100064.47
2023-12-03T00:49:01.492Z,100053.25
2023-12-03T00:51:29.285Z,100055.75
2023-12-03T00:53:59.944Z,100062.66
2023-12-03T00:56:27.782Z,100073.00
2023-12-03T00:58:57.525Z,100079.94
2023-12-03T01:01:25.242Z,100077.47
2023-12-03T01:03:54.250Z,100071.50
2023-12-03T01:06:21.906Z,100079.28
2023-12-03T01:08:49.752Z,100073.25
2023-12-03T01:11:34.410Z,100080.13
2023-12-03T01:14:05.953Z,100087.16
2023-12-03T01:16:33.946Z,100067.09
2023-12-03T01:19:02.210Z,100061.72
2023-12-03T01:21:30.245Z,100110.53
2023-12-03T01:23:58.149Z,99856.47
2023-12-03T01:26:25.933Z,99958.34
2023-12-03T01:28:54.447Z,99737.94
2023-12-03T01:31:23.833Z,100233.41
2023-12-03T01:33:51.726Z,99976.53
2023-12-03T01:36:19.547Z,100016.00
2023-12-03T01:38:47.331Z,99939.75
2023-12-03T01:41:15.108Z,100104.81
2023-12-03T01:43:50.166Z,100008.50
2023-12-03T01:46:18.300Z,100084.97
2023-12-03T01:48:47.603Z,100038.50
2023-12-03T01:51:15.576Z,99884.28
2023-12-03T01:53:43.978Z,99869.09
2023-12-03T01:56:12.932Z,100080.56
2023-12-03T01:58:42.946Z,100089.56
2023-12-03T02:01:10.951Z,100003.22
2023-12-03T02:03:38.714Z,100165.66
2023-12-03T02:06:08.907Z,99837.66
2023-12-03T02:08:36.892Z,100002.69
2023-12-03T02:11:05.265Z,100097.44
2023-12-03T02:13:34.953Z,99933.66
2023-12-03T02:16:02.663Z,100051.13
2023-12-03T02:18:31.280Z,100069.44
2023-12-03T02:20:59.093Z,99992.22
2023-12-03T02:23:30.716Z,99897.84
2023-12-03T02:25:58.604Z,100157.53
2023-12-03T02:28:26.518Z,99815.75
2023-12-03T02:30:54.374Z,100080.13
2023-12-03T02:33:22.226Z,99974.53
2023-12-03T02:35:49.999Z,99931.03
2023-12-03T02:38:17.936Z,100206.19
2023-12-03T02:40:47.172Z,99801.91
2023-12-03T02:43:14.931Z,99816.56
2023-12-03T02:45:42.708Z,99705.13
2023-12-03T02:48:10.636Z,100141.41
2023-12-03T02:50:38.520Z,100028.03
2023-12-03T02:53:06.337Z,100075.84
2023-12-03T02:55:34.092Z,100135.47
2023-12-03T02:58:03.259Z,100038.06
2023-12-03T03:00:30.993Z,100066.50
2023-12-03T03:02:58.727Z,99747.19
2023-12-03T03:05:26.607Z,100064.75
2023-12-03T03:07:55.082Z,100091.13
2023-12-03T03:10:22.825Z,100145.38
2023-12-03T03:12:50.649Z,99832.75
2023-12-03T03:15:20.202Z,100097.09
2023-12-03T03:17:48.077Z,100007.91
2023-12-03T03:20:17.058Z,99880.81
2023-12-03T03:22:44.868Z,100229.22
2023-12-03T03:25:13.206Z,100072.22
2023-12-03T03:27:41.056Z,100221.47
2023-12-03T03:30:10.345Z,100081.94
2023-12-03T03:32:39.853Z,99847.56
2023-12-03T03:35:08.729Z,99888.78
2023-12-03T03:37:36.654Z,100191.22
2023-12-03T03:40:05.610Z,99912.16
2023-12-03T03:42:33.633Z,100053.16
2023-12-03T03:45:01.905Z,99880.63
2023-12-03T03:47:30.392Z,99951.09
2023-12-03T03:49:59.772Z,100058.47
2023-12-03T03:52:27.966Z,100056.31
2023-12-03T03:54:55.888Z,100054.78
2023-12-03T03:57:23.901Z,99953.66
2023-12-03T03:59:52.584Z,100111.72
2023-12-03T04:02:20.531Z,100058.91
2023-12-03T04:04:48.567Z,100205.91
2023-12-03T04:07:18.094Z,100194.47
2023-12-03T04:09:47.287Z,99738.69
2023-12-03T04:12:15.347Z,100065.00
2023-12-03T04:14:43.538Z,100031.00
2023-12-03T04:17:11.526Z,100053.88
2023-12-03T04:19:39.719Z,100074.59
2023-12-03T04:22:07.686Z,99687.19
2023-12-03T04:24:37.179Z,100222.31
2023-12-03T04:27:05.859Z,100154.78
2023-12-03T04:29:33.831Z,99863.47
2023-12-03T04:32:01.866Z,99918.19
2023-12-03T04:34:29.771Z,99888.00
2023-12-03T04:36:58.050Z,100120.63
2023-12-03T04:39:26.051Z,99854.81
2023-12-03T04:41:55.527Z,100205.19
2023-12-03T04:44:23.546Z,99926.41
2023-12-03T04:46:51.591Z,99837.03
2023-12-03T04:49:19.539Z,99748.13
2023-12-03T04:51:47.835Z,100006.34
2023-12-03T04:54:15.889Z,99997.50
2023-12-03T04:56:44.720Z,100089.97
2023-12-03T04:59:14.166Z,99930.00
2023-12-03T05:01:42.206Z,100064.97
2023-12-03T05:04:10.332Z,100155.72
2023-12-03T05:06:38.532Z,99966.97
2023-12-03T05:09:07.136Z,99829.63
2023-12-03T05:11:36.722Z,100110.50
2023-12-03T05:14:04.995Z,100046.50
2023-12-03T05:16:34.735Z,99915.22
2023-12-03T05:19:02.800Z,100143.44
2023-12-03T05:21:31.050Z,99853.75
2023-12-03T05:23:59.878Z,100031.81
2023-12-03T05:26:27.759Z,99752.56
2023-12-03T05:28:55.630Z,99822.88
2023-12-03T05:31:23.548Z,100240.28
2023-12-03T05:33:53.051Z,100099.69
2023-12-03T05:36:22.112Z,100146.66
2023-12-03T05:38:50.215Z,100133.97
2023-12-03T05:41:18.460Z,100324.75
2023-12-03T05:43:46.524Z,100104.56
2023-12-03T05:46:14.527Z,100287.47
2023-12-03T05:48:43.756Z,100143.38
2023-12-03T05:51:13.259Z,100150.91
2023-12-03T05:53:41.368Z,100107.69
2023-12-03T05:56:12.122Z,99833.47
2023-12-03T05:58:40.006Z,100031.25
2023-12-03T06:01:08.463Z,100142.34
2023-12-03T06:03:36.605Z,99921.31
2023-12-03T06:06:04.900Z,99627.72
2023-12-03T06:08:34.328Z,99947.28
2023-12-03T06:11:02.302Z,100150.41
2023-12-03T06:13:30.243Z,100250.38
2023-12-03T06:15:58.149Z,100184.16
2023-12-03T06:18:30.360Z,100230.75
2023-12-03T06:20:58.159Z,100231.59
2023-12-03T06:23:25.929Z,100236.84
2023-12-03T06:25:55.041Z,100250.56
2023-12-03T06:28:22.754Z,100249.59
2023-12-03T06:30:50.579Z,100251.34
2023-12-03T06:33:23.565Z,100253.88
2023-12-03T06:35:51.924Z,100253.03
2023-12-03T06:38:19.701Z,100266.06
2023-12-03T06:40:47.475Z,100251.81
2023-12-03T06:43:16.625Z,100270.97
2023-12-03T06:45:44.333Z,100266.47
2023-12-03T06:48:12.268Z,100260.34
2023-12-03T06:50:41.274Z,100256.84
2023-12-03T06:53:10.257Z,100194.13
2023-12-03T06:55:37.906Z,100263.50
2023-12-03T06:58:05.631Z,100279.06
2023-12-03T07:00:35.022Z,100279.97
2023-12-03T07:03:02.804Z,100275.69
2023-12-03T07:05:30.437Z,100270.56
2023-12-03T07:07:58.790Z,100257.75
2023-12-03T07:10:26.424Z,100276.06
2023-12-03T07:12:55.271Z,100283.75
2023-12-03T07:15:25.296Z,100266.22
2023-12-03T07:17:54.289Z,100277.50
2023-12-03T07:20:22.096Z,100280.94
2023-12-03T07:22:49.719Z,100285.25
2023-12-03T07:25:18.112Z,100230.78
2023-12-03T07:30:20.080Z,100278.59
2023-12-03T07:32:47.890Z,100304.06
2023-12-03T07:35:16.959Z,100291.84
2023-12-03T07:37:44.688Z,100305.69
2023-12-03T07:40:12.666Z,100295.97
2023-12-03T07:42:41.870Z,100290.84
2023-12-03T07:45:10.526Z,100299.53
2023-12-03T07:47:38.313Z,100295.25
2023-12-03T07:50:06.748Z,100312.69
2023-12-03T07:52:35.919Z,100307.44
2023-12-03T07:55:03.577Z,100317.13
2023-12-03T07:57:31.448Z,100304.22
2023-12-03T07:59:59.288Z,100306.88
2023-12-03T08:02:27.016Z,100309.53
2023-12-03T08:04:54.702Z,100317.44
2023-12-03T08:07:22.723Z,100319.25
2023-12-03T08:09:52.884Z,100311.81
2023-12-03T08:12:20.723Z,100319.84
2023-12-03T08:14:48.688Z,100320.75
2023-12-03T08:17:16.456Z,100325.91
2023-12-03T08:19:44.279Z,100332.94
2023-12-03T08:22:12.987Z,100326.97
2023-12-03T08:24:40.842Z,100330.53
2023-12-03T08:27:10.102Z,100329.91
2023-12-03T08:29:37.752Z,100338.78
2023-12-03T08:32:06.092Z,100332.88
2023-12-03T08:34:34.590Z,100326.94
2023-12-03T08:37:09.661Z,100341.75
2023-12-03T08:39:37.365Z,100330.72
2023-12-03T08:42:05.789Z,100327.34
2023-12-03T08:44:35.744Z,100322.16
2023-12-03T08:47:05.799Z,100326.53
2023-12-03T08:49:33.502Z,100316.97
2023-12-03T08:52:03.376Z,100314.38
2023-12-03T08:54:31.798Z,100325.13
2023-12-03T08:57:00.201Z,100337.59
2023-12-03T08:59:27.827Z,100325.75
2023-12-03T09:01:56.958Z,100330.22
2023-12-03T09:04:24.651Z,100336.38
2023-12-03T09:06:52.356Z,100343.44
2023-12-03T09:09:20.177Z,100340.94
2023-12-03T09:11:47.824Z,100340.19
2023-12-03T09:14:15.593Z,100336.53
2023-12-03T09:16:43.419Z,100337.44
2023-12-03T09:19:12.804Z,100347.09
2023-12-03T09:21:40.755Z,100333.53
2023-12-03T09:24:08.820Z,100342.25
2023-12-03T09:26:36.644Z,100338.75
2023-12-03T09:29:04.439Z,100339.13
2023-12-03T09:31:32.350Z,100319.88
2023-12-03T09:34:00.277Z,100347.22
2023-12-03T09:36:30.658Z,100331.44
2023-12-03T09:38:58.499Z,100332.88
2023-12-03T09:41:26.487Z,100334.09
2023-12-03T09:43:56.276Z,100303.19
2023-12-03T09:46:25.116Z,100352.47
2023-12-03T09:48:53.156Z,100352.44
2023-12-03T09:51:21.022Z,100350.03
2023-12-03T09:53:50.251Z,100330.63
2023-12-03T09:56:20.300Z,100351.69
2023-12-03T09:58:48.895Z,100334.63
2023-12-03T10:01:16.780Z,100350.53
2023-12-03T10:03:44.925Z,100355.69
2023-12-03T10:06:13.010Z,100352.53
2023-12-03T10:08:42.150Z,100356.59
2023-12-03T10:11:11.941Z,100349.25
2023-12-03T10:13:39.954Z,100344.34
2023-12-03T10:16:10.434Z,100355.41
2023-12-03T10:18:38.398Z,100336.09
2023-12-03T10:21:07.603Z,100353.41
2023-12-03T10:23:35.973Z,100362.44
2023-12-03T10:26:16.214Z,100343.06
2023-12-03T10:28:44.030Z,100345.16
2023-12-03T10:31:12.980Z,100346.88
2023-12-03T10:33:40.916Z,100342.69
2023-12-03T10:36:10.524Z,100348.97
2023-12-03T10:38:38.868Z,100334.31
2023-12-03T10:41:08.435Z,100334.81
2023-12-03T10:43:38.303Z,100331.34
2023-12-03T10:46:07.222Z,100327.66
2023-12-03T10:48:36.169Z,100319.03
2023-12-03T10:51:05.896Z,100314.44
2023-12-03T10:53:34.109Z,100310.78
2023-12-03T10:56:03.025Z,100314.06
2023-12-03T10:58:31.925Z,100306.41
2023-12-03T11:01:08.246Z,100310.84
2023-12-03T11:03:44.442Z,100305.19
2023-12-03T11:06:12.379Z,100307.91
2023-12-03T11:08:40.225Z,100307.69
2023-12-03T11:11:09.476Z,100303.94
2023-12-03T11:13:44.097Z,100298.38
2023-12-03T11:16:16.094Z,100297.38
2023-12-03T11:18:45.598Z,100282.06
2023-12-03T11:21:16.912Z,100300.00
2023-12-03T11:23:55.845Z,100296.44
2023-12-03T11:26:25.040Z,100291.22
2023-12-03T11:28:57.394Z,100288.88
2023-12-03T11:31:27.673Z,100292.53
2023-12-03T11:33:57.963Z,100278.09
2023-12-03T11:36:36.736Z,100249.91
2023-12-03T11:39:04.782Z,100167.81
2023-12-03T11:41:39.300Z,100260.59
2023-12-03T11:44:19.531Z,100259.66
2023-12-03T11:46:49.904Z,100249.78
2023-12-03T11:49:18.018Z,100251.38
2023-12-03T11:51:47.605Z,100261.94
2023-12-03T11:54:17.347Z,100258.81
2023-12-03T11:56:45.838Z,100245.38
2023-12-03T11:59:14.548Z,100248.81
2023-12-03T12:01:42.267Z,100253.09
2023-12-03T12:04:11.502Z,100206.03
2023-12-03T12:06:39.383Z,100239.34
2023-12-03T12:09:12.187Z,100249.66
2023-12-03T12:11:39.896Z,100214.19
2023-12-03T12:14:08.216Z,100242.00
2023-12-03T12:16:38.117Z,100246.34
2023-12-03T12:19:06.494Z,100235.75
2023-12-03T12:21:35.764Z,100231.59
2023-12-03T12:24:03.522Z,100230.75
2023-12-03T12:26:31.224Z,100232.69
2023-12-03T12:29:00.706Z,100236.31
2023-12-03T12:31:28.802Z,100234.94
2023-12-03T12:33:57.635Z,100230.84
2023-12-03T12:36:25.330Z,100216.31
2023-12-03T12:38:54.353Z,100219.53
2023-12-03T12:41:22.398Z,100213.69
2023-12-03T12:43:54.827Z,100206.72
2023-12-03T12:46:22.460Z,100193.50
2023-12-03T12:48:50.176Z,100204.16
2023-12-03T12:51:22.386Z,100207.97
2023-12-03T12:53:57.876Z,100213.84
2023-12-03T12:56:25.557Z,100202.88
2023-12-03T12:58:54.124Z,100200.47
2023-12-03T13:01:21.803Z,100211.94
2023-12-03T13:03:49.563Z,100211.00
2023-12-03T13:06:17.371Z,100220.38
2023-12-03T13:08:44.980Z,100215.00
2023-12-03T13:11:13.937Z,100207.00
2023-12-03T13:13:41.558Z,100211.28
2023-12-03T13:16:10.029Z,100207.59
2023-12-03T13:18:39.802Z,100206.59
2023-12-03T13:21:08.318Z,100203.09
2023-12-03T13:23:36.474Z,100204.75
2023-12-03T13:26:04.162Z,100208.22
2023-12-03T13:28:33.364Z,100208.03
2023-12-03T13:31:01.804Z,100202.66
2023-12-03T13:33:31.036Z,100138.69
2023-12-03T13:35:59.041Z,100169.09
2023-12-03T13:38:26.734Z,100193.59
2023-12-03T13:40:56.043Z,100191.72
2023-12-03T13:43:23.819Z,100163.47
2023-12-03T13:45:53.512Z,100200.09
2023-12-03T13:48:21.408Z,100192.16
2023-12-03T13:50:49.118Z,100190.09
2023-12-03T13:53:16.943Z,100184.75
2023-12-03T13:55:44.533Z,100182.66
2023-12-03T13:58:12.351Z,100185.09
2023-12-03T14:00:40.327Z,100182.38
2023-12-03T14:03:09.464Z,100189.28
2023-12-03T14:05:37.229Z,100189.94
2023-12-03T14:08:05.558Z,100198.28
2023-12-03T14:10:33.271Z,100185.06
2023-12-03T14:13:00.932Z,100185.72
2023-12-03T14:15:29.160Z,100199.53
2023-12-03T14:17:57.062Z,100194.94
2023-12-03T14:20:26.216Z,100190.34
2023-12-03T14:22:55.488Z,100181.41
2023-12-03T14:25:23.231Z,100184.88
2023-12-03T14:27:51.135Z,100174.28
2023-12-03T14:30:19.385Z,100179.22
2023-12-03T14:32:47.171Z,100177.28
2023-12-03T14:35:14.917Z,100178.09
2023-12-03T14:37:44.125Z,100193.50
2023-12-03T14:40:14.928Z,100172.31
2023-12-03T14:42:43.044Z,100117.09
2023-12-03T14:45:12.136Z,100167.00
2023-12-03T14:47:41.325Z,100174.44
2023-12-03T14:50:09.781Z,100175.22
2023-12-03T14:52:37.640Z,100185.31
2023-12-03T14:55:08.024Z,100187.88
2023-12-03T14:57:37.007Z,100176.59
2023-12-03T15:00:06.998Z,100168.25
2023-12-03T15:02:34.810Z,100178.94
2023-12-03T15:05:05.160Z,100186.66
2023-12-03T15:07:34.333Z,100182.94
2023-12-03T15:10:03.279Z,100173.88
2023-12-03T15:12:34.077Z,100171.44
2023-12-03T15:15:02.405Z,100169.66
2023-12-03T15:17:31.168Z,100171.28
2023-12-03T15:19:59.120Z,100177.94
2023-12-03T15:22:27.014Z,100183.31
2023-12-03T15:24:55.025Z,100185.13
2023-12-03T15:27:25.013Z,100173.72
2023-12-03T15:29:54.061Z,100165.72
2023-12-03T15:32:23.724Z,100188.44
2023-12-03T15:34:51.664Z,100184.34
2023-12-03T15:37:19.548Z,100166.06
2023-12-03T15:39:47.228Z,100180.19
2023-12-03T15:42:14.926Z,100160.19
2023-12-03T15:44:42.666Z,100169.84
2023-12-03T15:47:11.857Z,100168.84
2023-12-03T15:49:39.662Z,100169.56
2023-12-03T15:52:08.440Z,100151.69
2023-12-03T15:54:36.217Z,100129.25
2023-12-03T15:57:03.968Z,100170.06
2023-12-03T15:59:31.842Z,100180.44
2023-12-03T16:02:00.633Z,100159.53
2023-12-03T16:04:29.701Z,100169.44
2023-12-03T16:06:59.173Z,100170.28
2023-12-03T16:09:26.916Z,100138.00
2023-12-03T16:11:57.106Z,100143.63
2023-12-03T16:14:24.902Z,100154.75
2023-12-03T16:16:54.990Z,100155.34
2023-12-03T16:19:24.378Z,100111.53
2023-12-03T16:21:54.645Z,100146.19
2023-12-03T16:24:22.890Z,100150.41
2023-12-03T16:26:51.925Z,100140.00
2023-12-03T16:29:19.999Z,100133.25
2023-12-03T16:31:47.925Z,100131.31
2023-12-03T16:34:17.457Z,100139.94
2023-12-03T16:36:46.573Z,100129.69
2023-12-03T16:39:16.048Z,100083.03
2023-12-03T16:41:44.530Z,100069.00
2023-12-03T16:44:12.360Z,100099.69
2023-12-03T16:46:40.351Z,100103.91
2023-12-03T16:49:08.298Z,100067.69
2023-12-03T16:51:37.885Z,100115.28
2023-12-03T16:54:06.608Z,100073.41
2023-12-03T16:56:36.916Z,100130.50
2023-12-03T16:59:05.101Z,100132.94
2023-12-03T17:01:33.173Z,100141.41
2023-12-03T17:04:00.996Z,100133.34
2023-12-03T17:06:29.195Z,100137.88
2023-12-03T17:08:57.337Z,100128.44
2023-12-03T17:11:26.269Z,100125.00
2023-12-03T17:13:55.792Z,100132.31
2023-12-03T17:16:25.643Z,100132.63
2023-12-03T17:18:54.055Z,100133.53
2023-12-03T17:21:22.644Z,100106.25
2023-12-03T17:23:51.261Z,100142.38
2023-12-03T17:26:20.819Z,99996.81
2023-12-03T17:28:48.826Z,100082.72
2023-12-03T17:31:17.988Z,100130.28
2023-12-03T17:33:46.232Z,100131.97
2023-12-03T17:36:14.376Z,100131.22
2023-12-03T17:38:42.112Z,100123.63
2023-12-03T17:41:09.945Z,100115.88
2023-12-03T17:43:37.647Z,100107.94
2023-12-03T17:46:06.057Z,100102.81
2023-12-03T17:48:35.598Z,100107.13
2023-12-03T17:51:03.398Z,100094.09
2023-12-03T17:53:31.163Z,100099.38
2023-12-03T17:56:01.965Z,100097.50
2023-12-03T17:58:30.111Z,100056.53
2023-12-03T18:00:58.028Z,100089.03
2023-12-03T18:03:26.152Z,100086.44
2023-12-03T18:05:56.195Z,100074.41
2023-12-03T18:08:27.972Z,100077.09
2023-12-03T18:10:57.582Z,99964.94
2023-12-03T18:13:25.815Z,100023.09
2023-12-03T18:15:54.388Z,100077.22
2023-12-03T18:18:23.329Z,100079.66
2023-12-03T18:21:00.963Z,100023.38
2023-12-03T18:23:30.573Z,100060.31
2023-12-03T18:25:59.152Z,100066.44
2023-12-03T18:28:27.269Z,100062.09
2023-12-03T18:30:55.852Z,100056.53
2023-12-03T18:33:24.233Z,100043.47
2023-12-03T18:35:53.334Z,100049.47
2023-12-03T18:38:22.542Z,100046.75
2023-12-03T18:40:54.355Z,100060.66
2023-12-03T18:43:23.839Z,100036.19
2023-12-03T18:45:52.060Z,99990.63
2023-12-03T18:48:20.129Z,100029.91
2023-12-03T18:50:50.948Z,100038.50
2023-12-03T18:53:18.782Z,100032.41
2023-12-03T18:55:52.056Z,100020.28
2023-12-03T18:58:20.241Z,100025.31
2023-12-03T19:00:48.239Z,100007.69
2023-12-03T19:03:16.327Z,100011.03
2023-12-03T19:05:44.073Z,100012.59
2023-12-03T19:08:12.188Z,100005.16
2023-12-03T19:10:39.877Z,99998.28
2023-12-03T19:13:16.414Z,100001.00
2023-12-03T19:15:47.842Z,99995.53
2023-12-03T19:18:15.871Z,99987.91
2023-12-03T19:20:43.856Z,99997.34
2023-12-03T19:23:11.560Z,99995.41
2023-12-03T19:25:39.373Z,99985.13
2023-12-03T19:28:07.209Z,99965.59
2023-12-03T19:30:38.381Z,100008.47
2023-12-03T19:33:07.211Z,99964.06
2023-12-03T19:35:35.610Z,99958.38
2023-12-03T19:38:03.398Z,99965.75
2023-12-03T19:40:31.174Z,99964.69
2023-12-03T19:42:58.917Z,99943.25
2023-12-03T19:45:26.962Z,99950.31
2023-12-03T19:47:56.382Z,99894.44
2023-12-03T19:50:25.084Z,99942.50
2023-12-03T19:55:27.185Z,99877.25
2023-12-03T19:58:01.791Z,99923.03
2023-12-03T20:00:29.589Z,99922.38
2023-12-03T20:02:58.916Z,99928.09
2023-12-03T20:05:26.680Z,99918.66
2023-12-03T20:07:54.661Z,99914.50
2023-12-03T20:10:23.483Z,99904.06
2023-12-03T20:12:52.458Z,99895.22
2023-12-03T20:15:25.301Z,99913.38
2023-12-03T20:17:57.840Z,99912.66
2023-12-03T20:20:25.550Z,99896.16
2023-12-03T20:22:54.272Z,99875.19
2023-12-03T20:25:22.868Z,99886.31
2023-12-03T20:27:50.719Z,99866.53
2023-12-03T20:30:18.830Z,99894.25
2023-12-03T20:32:48.144Z,99900.50
2023-12-03T20:35:17.416Z,99913.53
2023-12-03T20:37:45.133Z,99916.19
2023-12-03T20:40:13.896Z,99878.94
2023-12-03T20:42:42.114Z,99884.28
2023-12-03T20:45:11.775Z,99865.41
2023-12-03T20:47:39.451Z,99864.38
2023-12-03T20:50:07.801Z,99867.50
2023-12-03T20:52:36.900Z,99857.09
2023-12-03T20:55:05.025Z,99864.88
2023-12-03T20:57:32.925Z,99852.78
2023-12-03T21:00:01.000Z,99848.28
2023-12-03T21:02:28.613Z,99858.81
2023-12-03T21:04:56.268Z,99856.88
2023-12-03T21:07:24.039Z,99842.38
2023-12-03T21:10:11.404Z,99823.47
2023-12-03T21:12:39.238Z,99846.03
2023-12-03T21:15:08.723Z,99840.22
2023-12-03T21:17:36.433Z,99828.09
2023-12-03T21:20:04.207Z,99836.22
2023-12-03T21:22:31.830Z,99833.63
2023-12-03T21:24:59.577Z,99831.00
2023-12-03T21:27:28.620Z,99853.47
2023-12-03T21:29:56.393Z,99869.66
2023-12-03T21:32:26.435Z,99835.72
2023-12-03T21:34:54.975Z,99846.97
2023-12-03T21:37:22.752Z,99855.50
2023-12-03T21:39:50.560Z,99836.34
2023-12-03T21:42:18.425Z,99828.63
2023-12-03T21:44:47.674Z,99843.38
2023-12-03T21:47:15.419Z,99841.72
2023-12-03T21:49:43.782Z,99837.47
2023-12-03T21:52:11.460Z,99836.84
2023-12-03T21:54:39.243Z,99830.88
2023-12-03T21:57:06.863Z,99851.50
2023-12-03T21:59:34.505Z,99857.47
2023-12-03T22:02:03.602Z,99834.31
2023-12-03T22:04:31.426Z,99876.72
2023-12-03T22:07:01.561Z,99840.63
2023-12-03T22:09:29.414Z,99823.59
2023-12-03T22:11:57.071Z,99806.56
2023-12-03T22:14:24.710Z,99796.09
2023-12-03T22:16:53.695Z,99798.47
2023-12-03T22:19:22.805Z,99783.81
2023-12-03T22:21:50.638Z,99778.53
2023-12-03T22:24:18.443Z,99780.25
2023-12-03T22:26:46.107Z,99783.78
2023-12-03T22:29:18.155Z,99773.75
2023-12-03T22:31:50.727Z,99769.41
2023-12-03T22:34:18.406Z,99770.19
2023-12-03T22:36:47.684Z,99756.50
2023-12-03T22:39:15.491Z,99760.84
2023-12-03T22:41:43.106Z,99749.69
2023-12-03T22:44:12.048Z,99685.91
2023-12-03T22:46:39.756Z,99738.50
2023-12-03T22:49:07.495Z,99741.19
2023-12-03T22:51:35.699Z,99713.38
2023-12-03T22:54:04.914Z,99726.53
2023-12-03T22:56:32.551Z,99706.59
2023-12-03T22:59:00.569Z,99710.28
2023-12-03T23:01:28.670Z,99726.44
2023-12-03T23:03:56.456Z,99719.66
2023-12-03T23:06:31.570Z,99716.81
2023-12-03T23:09:00.386Z,99734.44
2023-12-03T23:11:29.472Z,99743.19
2023-12-03T23:13:58.808Z,99720.03
2023-12-03T23:16:27.842Z,99717.19
2023-12-03T23:18:55.857Z,99710.16
2023-12-03T23:21:23.538Z,99729.38
2023-12-03T23:23:51.195Z,99726.03
2023-12-03T23:26:18.779Z,99724.34
2023-12-03T23:28:48.567Z,99703.66
2023-12-03T23:31:16.381Z,99704.41
2023-12-03T23:33:44.197Z,99694.84
2023-12-03T23:36:13.529Z,99676.50
2023-12-03T23:38:41.786Z,99652.19
2023-12-03T23:41:09.758Z,99703.72
2023-12-03T23:43:37.485Z,99713.13
2023-12-03T23:46:07.674Z,99700.88
2023-12-03T23:48:35.425Z,99703.56
2023-12-03T23:51:03.145Z,99686.19
2023-12-03T23:53:30.903Z,99682.03
2023-12-03T23:55:58.629Z,99683.78
2023-12-03T23:58:26.326Z,99683.03
